Latest Weather Observations for Hindmarsh Island

IDS60801

Issued at 1:31 pm CST Wednesday 5 August 2015 (issued every 30 minutes, with the page automatically refreshed every 10 minutes)

About weather observations | Map of weather stations | Latest weather observations for SA | Other Formats
Station Details ID: 023894 Name: HINDMARSH ISLAND AWS Lat: -35.52 Lon: 138.82 Height: 11.0 m
Data from the previous 72 hours. | See also: Recent months at Hindmarsh Island
Date/Time
CST
Temp
°C
App
Temp
°C
Dew
Point
Rel
Hum
%
Delta-T
°C
Wind Press
QNH
hPa
Press
MSL
hPa
Rain
since 9 am
mm
Dir
 
Spd
km/h
Gust
km/h
Spd
kts
Gust
kts
05/01:30pm 11.6 5.6 6.9 73 2.2 SW 28 39 15 21 1020.4 - 0.2
05/01:15pm 11.1 5.0 8.3 83 1.4 SW 30 48 16 26 1020.5 - 0.2
05/01:13pm 11.1 5.0 8.3 83 1.4 SW 30 48 16 26 1020.5 - 0.2
05/01:00pm 11.7 4.2 6.4 70 2.5 SSW 35 46 19 25 1020.4 - 0.2
05/12:30pm 10.8 4.2 7.9 82 1.4 SW 32 44 17 24 1020.7 - 0.2
05/12:09pm 12.5 4.2 7.8 73 2.3 SW 41 61 22 33 1020.8 - 0.0
05/12:07pm 12.5 4.2 7.8 73 2.3 SW 41 61 22 33 1020.8 - 0.0
05/12:00pm 12.6 5.3 7.3 70 2.6 SW 35 46 19 25 1020.8 1020.9 0.0
05/11:30am 11.7 5.5 8.0 78 1.8 SW 30 43 16 23 1021.2 - 0.0
05/11:29am 12.0 6.3 8.3 78 1.8 SW 28 35 15 19 1021.3 - 0.0
05/11:27am 12.0 5.9 8.3 78 1.8 WSW 30 43 16 23 1021.3 - 0.0
05/11:07am 11.1 3.6 8.0 81 1.5 SSW 37 56 20 30 1021.3 - 0.0
05/11:05am 11.1 3.6 8.0 81 1.5 SSW 37 56 20 30 1021.3 - 0.0
05/11:00am 10.8 2.0 7.9 82 1.4 SSW 44 57 24 31 1021.3 - 0.0
05/10:52am 12.3 4.0 7.8 74 2.2 SW 41 59 22 32 1020.9 - 0.0
05/10:50am 12.3 4.0 7.8 74 2.2 SW 41 59 22 32 1020.9 - 0.0
05/10:30am 12.1 5.3 7.6 74 2.2 SW 33 43 18 23 1021.2 - 0.0
05/10:00am 11.9 3.3 8.0 77 1.9 SSW 43 54 23 29 1020.9 - 0.0
05/09:40am 12.2 4.7 8.1 76 2.0 SW 37 56 20 30 1020.5 - 0.0
05/09:38am 12.2 4.7 8.1 76 2.0 SW 37 56 20 30 1020.5 - 0.0
05/09:30am 11.4 3.7 7.3 76 2.0 SW 37 46 20 25 1020.6 - 0.0
05/09:00am 11.6 3.9 7.3 75 2.1 SW 37 50 20 27 1020.2 1020.2 1.6
05/08:30am 10.3 2.7 7.4 82 1.4 SSW 37 50 20 27 1020.1 - 1.6
05/08:11am 10.5 3.7 7.6 82 1.4 SW 33 57 18 31 1020.2 - 1.0
05/08:09am 10.5 3.7 7.6 82 1.4 SW 33 57 18 31 1020.2 - 1.0
05/08:00am 11.1 3.3 8.1 82 1.5 SSW 39 48 21 26 1019.9 - 0.8
05/07:58am 10.8 2.5 7.9 82 1.4 SSW 41 46 22 25 1019.7 - 0.8
05/07:30am 10.7 3.3 8.3 85 1.2 SW 37 46 20 25 1019.6 - 0.8
05/07:25am 10.4 2.9 8.0 85 1.2 WSW 37 44 20 24 1019.6 - 0.8
05/07:19am 10.4 2.6 8.2 86 1.1 WSW 39 44 21 24 1019.5 - 0.8
05/07:00am 10.2 5.5 7.6 84 1.2 W 22 33 12 18 1019.5 - 0.6
05/06:30am 10.3 4.4 7.7 84 1.2 WSW 28 39 15 21 1019.3 - 0.6
05/06:00am 10.3 4.0 7.5 83 1.3 W 30 43 16 23 1019.2 1019.2 0.4
05/05:41am 10.3 4.0 7.5 83 1.3 WSW 30 48 16 26 1019.2 - 0.4
05/05:39am 10.3 4.0 7.5 83 1.3 WSW 30 48 16 26 1019.2 - 0.4
05/05:30am 10.2 5.4 7.4 83 1.3 W 22 30 12 16 1019.3 - 0.4
05/05:00am 9.9 5.5 7.2 83 1.3 W 20 32 11 17 1019.2 - 0.4
05/04:30am 10.0 5.1 6.9 81 1.5 W 22 30 12 16 1019.1 - 0.2
05/04:00am 9.9 4.6 6.8 81 1.5 W 24 33 13 18 1019.2 - 0.2
05/03:30am 10.0 4.6 6.3 78 1.7 W 24 33 13 18 1019.4 - 0.2
05/03:00am 10.0 4.6 6.2 77 1.8 W 24 32 13 17 1019.5 1019.5 0.2
05/02:30am 10.1 3.9 6.3 77 1.8 W 28 35 15 19 1019.7 - 0.2
05/02:00am 10.1 4.3 6.3 77 1.8 W 26 32 14 17 1019.9 - 0.2
05/01:30am 10.4 5.0 6.4 76 1.9 W 24 37 13 20 1020.2 - 0.2
05/01:00am 10.6 3.9 5.8 72 2.2 W 30 39 16 21 1020.4 - 0.2
05/12:30am 10.8 4.9 6.0 72 2.2 W 26 35 14 19 1020.7 - 0.2
05/12:00am 11.0 5.2 6.4 73 2.2 W 26 35 14 19 1020.9 1021.0 0.2
 
Date/Time
CST
Temp
°C
App
Temp
°C
Dew
Point
Rel
Hum
%
Delta-T
°C
Wind Press
QNH
hPa
Press
MSL
hPa
Rain
since 9 am
mm
Dir
 
Spd
km/h
Gust
km/h
Spd
kts
Gust
kts
04/11:30pm 11.2 4.5 7.3 77 1.9 W 32 41 17 22 1021.1 - 0.2
04/11:00pm 11.1 5.5 8.7 85 1.2 W 28 39 15 21 1021.2 - 0.2
04/10:30pm 11.2 5.9 8.6 84 1.3 W 26 35 14 19 1021.3 - 0.2
04/10:00pm 11.4 6.5 8.4 82 1.5 W 24 33 13 18 1021.4 - 0.2
04/09:30pm 11.6 5.7 7.7 77 1.9 W 28 35 15 19 1021.6 - 0.2
04/09:00pm 11.3 6.1 7.2 76 2.0 W 24 33 13 18 1021.8 1021.8 0.2
04/08:30pm 11.1 5.8 6.8 75 2.0 WNW 24 32 13 17 1021.6 - 0.2
04/08:00pm 11.1 5.8 6.6 74 2.1 W 24 35 13 19 1022.0 - 0.2
04/07:30pm 10.9 6.4 6.8 76 1.9 W 20 28 11 15 1022.3 - 0.2
04/07:00pm 11.2 6.3 6.7 74 2.1 WNW 22 30 12 16 1022.4 - 0.2
04/06:30pm 10.7 7.4 6.6 76 1.9 WNW 13 19 7 10 1022.7 - 0.2
04/06:00pm 10.9 7.3 6.6 75 2.0 WNW 15 17 8 9 1022.7 1022.7 0.2
04/05:30pm 11.1 7.5 6.6 74 2.1 W 15 24 8 13 1022.8 - 0.2
04/05:00pm 11.4 7.4 6.5 72 2.3 W 17 24 9 13 1022.8 - 0.2
04/04:30pm 11.3 6.4 7.0 75 2.0 WNW 22 32 12 17 1023.1 - 0.2
04/04:00pm 11.1 5.6 7.4 78 1.8 W 26 41 14 22 1023.4 - 0.2
04/03:43pm 11.4 3.7 7.1 75 2.1 W 37 46 20 25 1023.4 - 0.2
04/03:41pm 11.4 5.4 7.1 75 2.1 W 28 46 15 25 1023.4 - 0.2
04/03:30pm 11.3 7.1 7.6 78 1.8 W 19 30 10 16 1023.6 - 0.2
04/03:00pm 11.7 6.6 7.6 76 2.0 WSW 24 39 13 21 1023.7 1023.7 0.0
04/02:30pm 12.7 7.6 6.1 64 3.1 W 22 33 12 18 1023.7 - 0.0
04/02:00pm 12.7 6.3 5.1 60 3.5 W 28 41 15 22 1023.9 - 0.0
04/01:30pm 13.2 7.6 5.4 59 3.6 W 24 35 13 19 1024.1 - 0.0
04/01:00pm 12.9 8.3 5.8 62 3.3 W 19 28 10 15 1024.7 - 0.0
04/12:30pm 12.4 7.8 5.6 63 3.2 WSW 19 32 10 17 1025.3 - 0.0
04/12:00pm 12.7 8.1 6.5 66 2.9 WNW 20 28 11 15 1025.7 1025.8 0.0
04/11:30am 12.5 8.6 7.0 69 2.6 W 17 24 9 13 1026.3 - 0.0
04/11:00am 11.7 7.3 6.4 70 2.5 WSW 19 26 10 14 1026.6 - 0.0
04/10:30am 11.4 6.3 6.1 70 2.5 W 22 28 12 15 1026.7 - 0.0
04/10:00am 11.3 6.2 6.2 71 2.4 W 22 30 12 16 1026.8 - 0.0
04/09:30am 10.6 6.0 6.4 75 2.0 W 20 30 11 16 1026.8 - 0.0
04/09:00am 9.6 5.4 5.6 76 1.8 WNW 17 22 9 12 1026.8 1026.8 2.2
04/08:30am 8.7 4.1 5.6 81 1.4 WNW 19 26 10 14 1026.7 - 2.2
04/08:00am 7.8 4.6 5.1 83 1.2 WNW 11 17 6 9 1026.7 - 2.2
04/07:30am 6.9 3.2 4.4 84 1.1 NW 13 17 7 9 1026.6 - 2.2
04/07:00am 7.0 3.7 4.3 83 1.2 WNW 11 15 6 8 1026.4 - 2.2
04/06:30am 7.6 3.6 4.9 83 1.2 WNW 15 19 8 10 1026.2 - 2.2
04/06:00am 7.2 3.5 4.7 84 1.1 WNW 13 19 7 10 1026.3 1026.3 2.2
04/05:30am 7.5 3.9 5.1 85 1.1 WNW 13 17 7 9 1026.2 - 2.2
04/05:00am 8.4 3.3 6.0 85 1.1 W 22 35 12 19 1026.2 - 2.2
04/04:30am 7.1 3.0 4.6 84 1.1 WNW 15 17 8 9 1026.0 - 2.2
04/04:00am 7.4 3.0 4.7 83 1.2 WNW 17 22 9 12 1026.1 - 2.2
04/03:30am 7.8 3.8 5.1 83 1.2 W 15 20 8 11 1026.3 - 2.2
04/03:00am 7.1 4.2 4.8 85 1.0 WNW 9 15 5 8 1026.2 1026.2 2.2
04/02:30am 7.3 4.4 4.8 84 1.1 WNW 9 15 5 8 1026.4 - 2.2
04/02:00am 7.9 3.6 5.4 84 1.1 WNW 17 28 9 15 1026.5 - 2.2
04/01:30am 8.8 5.1 6.2 84 1.2 W 15 20 8 11 1026.6 - 2.2
04/01:00am 7.8 3.9 5.3 84 1.1 WNW 15 20 8 11 1026.6 - 1.6
04/12:30am 8.3 4.5 5.8 84 1.1 WNW 15 19 8 10 1026.7 - 1.6
04/12:00am 8.2 4.7 5.5 83 1.2 WNW 13 15 7 8 1026.9 1026.8 1.4
 
Date/Time
CST
Temp
°C
App
Temp
°C
Dew
Point
Rel
Hum
%
Delta-T
°C
Wind Press
QNH
hPa
Press
MSL
hPa
Rain
since 9 am
mm
Dir
 
Spd
km/h
Gust
km/h
Spd
kts
Gust
kts
03/11:30pm 9.2 5.4 5.6 78 1.6 SSW 15 19 8 10 1026.8 - 1.4
03/11:00pm 8.7 5.1 5.1 78 1.6 SSW 13 20 7 11 1026.7 - 1.4
03/10:30pm 9.7 5.2 5.9 77 1.7 SSW 19 22 10 12 1026.7 - 1.4
03/10:00pm 9.0 5.6 5.7 80 1.5 SSW 13 20 7 11 1027.0 - 1.4
03/09:30pm 9.0 4.8 5.9 81 1.4 S 17 22 9 12 1027.1 - 1.4
03/09:00pm 9.2 3.6 5.4 77 1.7 S 24 30 13 16 1027.0 1026.9 1.4
03/08:30pm 9.1 4.6 6.0 81 1.4 S 19 22 10 12 1027.0 - 1.4
03/08:08pm 9.6 1.3 6.3 80 1.5 S 39 44 21 24 1026.7 - 1.4
03/08:06pm 9.6 1.3 6.3 80 1.5 S 39 44 21 24 1026.7 - 1.4
03/08:00pm 9.4 4.7 5.0 74 2.0 SW 19 22 10 12 1026.9 - 1.4
03/07:30pm 9.8 5.0 5.4 74 2.0 SSW 20 26 11 14 1026.7 - 1.4
03/07:00pm 9.6 4.2 6.3 80 1.5 S 24 32 13 17 1026.5 - 1.4
03/06:30pm 9.4 4.3 5.9 79 1.6 SW 22 33 12 18 1026.4 - 1.4
03/06:00pm 9.4 4.5 5.2 75 1.9 SW 20 26 11 14 1026.0 1026.1 1.4
03/05:30pm 9.4 4.5 5.2 75 1.9 SW 20 26 11 14 1026.0 - 1.4
03/05:00pm 9.7 3.5 6.2 79 1.6 S 28 33 15 18 1025.7 - 1.4
03/04:41pm 9.2 1.4 6.6 84 1.2 S 37 43 20 23 1025.6 - 1.4
03/04:39pm 9.4 1.3 6.8 84 1.2 SSW 39 43 21 23 1025.6 - 1.4
03/04:30pm 9.6 3.6 7.0 84 1.2 SW 28 41 15 22 1025.8 - 1.2
03/04:00pm 10.8 4.9 6.0 72 2.2 S 26 35 14 19 1025.4 - 0.0
03/03:30pm 11.4 4.9 4.8 64 3.0 SSW 28 33 15 18 1025.2 - 0.0
03/03:00pm 11.7 5.5 6.0 68 2.7 SSW 28 35 15 19 1024.8 1024.8 0.0
03/02:30pm 11.3 4.6 5.8 69 2.6 S 30 37 16 20 1024.6 - 0.0
03/02:00pm 12.1 5.0 5.7 65 3.0 SSW 32 39 17 21 1024.5 - 0.0
03/01:30pm 11.2 5.0 6.3 72 2.3 SW 28 39 15 21 1024.6 - 0.0
03/01:00pm 11.4 4.3 5.5 67 2.7 SSW 32 39 17 21 1024.7 - 0.0
03/12:30pm 12.5 5.6 7.4 71 2.5 SSW 33 41 18 22 1024.7 - 0.0
03/12:00pm 11.3 4.3 7.0 75 2.0 SSW 33 46 18 25 1024.8 1024.8 0.0
03/11:30am 11.5 3.8 7.0 74 2.1 SSW 37 43 20 23 1025.1 - 0.0
03/11:05am 11.6 3.9 7.3 75 2.1 SSW 37 56 20 30 1025.0 - 0.0
03/11:00am 12.0 5.1 7.1 72 2.4 SSW 33 41 18 22 1025.0 - 0.0
03/10:30am 10.6 3.2 6.7 77 1.8 SSW 35 50 19 27 1025.1 - 0.0
03/10:00am 11.5 4.7 7.8 78 1.8 SSW 33 39 18 21 1024.7 - 0.0
03/09:30am 10.7 2.6 6.8 77 1.8 SW 39 46 21 25 1024.2 - 0.0
03/09:00am 10.9 3.2 7.2 78 1.8 SSW 37 44 20 24 1023.8 1023.8 2.8
03/08:47am 10.5 3.4 7.9 84 1.3 SW 35 54 19 29 1023.7 - 2.8
03/08:45am 10.5 3.4 7.9 84 1.3 SW 35 54 19 29 1023.7 - 2.8
03/08:30am 10.8 3.5 7.3 79 1.7 SW 35 46 19 25 1023.6 - 2.8
03/08:09am 10.4 1.1 7.6 83 1.3 SW 46 56 25 30 1023.2 - 2.8
03/08:07am 10.4 4.2 7.8 84 1.3 WSW 30 52 16 28 1023.3 - 2.8
03/08:05am 10.4 4.2 7.8 84 1.3 WSW 30 52 16 28 1023.3 - 2.8
03/08:00am 10.2 4.0 7.8 85 1.2 WSW 30 44 16 24 1023.3 - 2.8
03/07:58am 10.1 3.9 7.7 85 1.2 WSW 30 54 16 29 1023.3 - 2.8
03/07:51am 9.9 -0.2 7.5 85 1.1 SW 50 56 27 30 1023.0 - 2.6
03/07:49am 9.9 -0.2 7.5 85 1.1 SW 50 56 27 30 1023.0 - 2.6
03/07:47am 10.3 4.5 7.9 85 1.2 WSW 28 48 15 26 1023.0 - 2.6
03/07:45am 10.3 4.5 7.9 85 1.2 WSW 28 48 15 26 1023.0 - 2.6
03/07:30am 10.1 5.1 8.0 87 1.0 W 24 33 13 18 1023.0 - 2.4
03/07:00am 10.4 5.1 8.3 87 1.0 W 26 41 14 22 1022.6 - 2.4
03/06:30am 10.1 4.7 7.9 86 1.1 WSW 26 37 14 20 1022.1 - 1.6
03/06:02am 9.9 3.3 7.8 87 1.0 WSW 32 50 17 27 1022.0 - 1.4
03/06:00am 9.9 4.0 7.7 86 1.0 W 28 50 15 27 1022.0 1022.0 1.4
03/05:30am 10.1 4.1 7.2 82 1.4 W 28 35 15 19 1021.6 - 0.4
03/05:06am 10.6 4.6 7.1 79 1.7 WSW 28 46 15 25 1021.7 - 0.2
03/05:00am 10.6 4.9 6.7 77 1.8 WSW 26 33 14 18 1021.6 - 0.2
03/04:30am 11.1 5.7 6.3 72 2.2 W 24 33 13 18 1021.1 - 0.2
03/04:00am 11.1 5.2 5.8 70 2.5 W 26 35 14 19 1020.9 - 0.2
03/03:30am 11.4 5.7 6.5 72 2.3 W 26 37 14 20 1021.0 - 0.2
03/03:00am 10.9 4.7 7.8 81 1.5 W 30 41 16 22 1021.2 1021.2 0.2
03/02:30am 11.4 4.8 7.7 78 1.8 WSW 32 46 17 25 1021.1 - 0.2
03/02:27am 11.3 5.4 7.6 78 1.8 WSW 28 46 15 25 1021.0 - 0.2
03/02:25am 11.3 5.4 7.6 78 1.8 WSW 28 46 15 25 1021.0 - 0.2
03/02:00am 11.0 4.7 7.5 79 1.7 W 30 41 16 22 1020.9 - 0.2
03/01:44am 11.1 5.2 7.6 79 1.7 W 28 50 15 27 1021.0 - 0.2
03/01:42am 11.1 5.2 7.6 79 1.7 W 28 50 15 27 1021.0 - 0.2
03/01:30am 11.1 5.7 8.0 81 1.5 W 26 39 14 21 1021.0 - 0.2
03/01:07am 11.5 5.5 7.2 75 2.1 W 28 52 15 28 1020.7 - 0.2
03/01:05am 11.5 5.5 7.2 75 2.1 W 28 52 15 28 1020.7 - 0.2
03/01:00am 11.5 6.2 7.0 74 2.1 W 24 35 13 19 1020.7 - 0.2
03/12:30am 11.1 6.1 6.6 74 2.1 W 22 30 12 16 1020.6 - 0.2
03/12:00am 11.5 6.1 6.4 71 2.4 W 24 32 13 17 1020.9 1020.9 0.2
 
Date/Time
CST
Temp
°C
App
Temp
°C
Dew
Point
Rel
Hum
%
Delta-T
°C
Wind Press
QNH
hPa
Press
MSL
hPa
Rain
since 9 am
mm
Dir
 
Spd
km/h
Gust
km/h
Spd
kts
Gust
kts
02/11:30pm 11.6 5.8 6.3 70 2.5 W 26 37 14 20 1020.7 - 0.2
02/11:07pm 12.0 5.8 6.3 68 2.7 W 28 48 15 26 1020.7 - 0.2
02/11:06pm 11.9 5.7 6.2 68 2.7 W 28 48 15 26 1020.7 - 0.2
02/11:00pm 11.8 6.3 6.1 68 2.7 W 24 30 13 16 1020.9 - 0.2
02/10:30pm 11.9 5.7 6.2 68 2.7 W 28 35 15 19 1020.6 - 0.2
02/10:12pm 12.2 5.6 6.0 66 2.9 W 30 48 16 26 1020.7 - 0.2
02/10:10pm 12.2 5.6 6.0 66 2.9 W 30 48 16 26 1020.7 - 0.2
02/10:00pm 11.8 4.6 5.9 67 2.8 W 33 46 18 25 1020.7 - 0.2
02/09:43pm 12.2 5.2 5.8 65 3.0 W 32 50 17 27 1020.8 - 0.2
02/09:41pm 12.2 5.5 5.8 65 3.0 W 30 50 16 27 1020.8 - 0.2
02/09:30pm 11.8 5.1 5.4 65 3.0 W 30 44 16 24 1020.8 - 0.2
02/09:07pm 12.1 5.7 5.3 63 3.1 W 28 50 15 27 1020.6 - 0.2
02/09:05pm 12.1 5.7 5.3 63 3.1 W 28 50 15 27 1020.6 - 0.2
02/09:00pm 11.7 6.1 5.6 66 2.8 W 24 33 13 18 1020.8 1020.8 0.2
02/08:30pm 11.5 6.2 5.2 65 2.9 WNW 22 30 12 16 1020.5 - 0.2
02/08:00pm 11.6 6.7 5.0 64 3.0 WNW 20 30 11 16 1020.5 - 0.2
02/07:30pm 12.0 6.0 5.4 64 3.1 W 26 33 14 18 1020.3 - 0.2
02/07:00pm 11.8 7.2 6.5 70 2.5 WNW 20 28 11 15 1019.9 - 0.2
02/06:30pm 12.4 7.2 7.1 70 2.6 W 24 37 13 20 1019.5 - 0.2
02/06:00pm 12.8 8.6 8.1 73 2.3 WNW 20 33 11 18 1019.2 1019.1 0.2
02/05:30pm 12.8 7.8 7.9 72 2.4 W 24 32 13 17 1018.8 - 0.2
02/05:00pm 13.0 7.9 7.5 69 2.7 WNW 24 30 13 16 1018.6 - 0.2
02/04:30pm 13.5 7.4 6.8 64 3.2 W 28 44 15 24 1018.4 - 0.2
02/04:00pm 12.8 7.1 8.5 75 2.1 W 28 37 15 20 1018.2 - 0.2
02/03:30pm 13.8 7.5 7.6 66 3.0 W 30 41 16 22 1018.0 - 0.2
02/03:00pm 13.6 6.6 6.9 64 3.2 W 33 48 18 26 1017.9 1017.8 0.2
02/02:30pm 14.4 6.6 6.7 60 3.7 W 37 50 20 27 1017.5 - 0.0
02/02:01pm 14.2 7.2 7.0 62 3.5 W 33 54 18 29 1017.4 - 0.0
02/02:00pm 14.2 6.9 7.3 63 3.4 W 35 54 19 29 1017.5 - 0.0
02/01:59pm 14.2 7.2 7.0 62 3.5 W 33 54 18 29 1017.4 - 0.0

Other Formats:

Comma delimited format used in spreadsheet applications
http://www.bom.gov.au/fwo/IDS60801/IDS60801.94677.axf

JavaScript Object Notation format (JSON) in row-major order
http://www.bom.gov.au/fwo/IDS60801/IDS60801.94677.json